createdAt,value
2019-04-10T00:01:12.061Z,99876.06
2019-04-10T00:03:44.013Z,99872.96
2019-04-10T00:06:18.568Z,99875.64
2019-04-10T00:08:50.692Z,99875.19
2019-04-10T00:11:22.849Z,99874.20
2019-04-10T00:13:55.347Z,99875.31
2019-04-10T00:16:27.788Z,99879.34
2019-04-10T00:18:59.394Z,99883.47
2019-04-10T00:21:31.447Z,99890.25
2019-04-10T00:24:03.882Z,99885.94
2019-04-10T00:26:35.662Z,99889.78
2019-04-10T00:29:07.772Z,99891.30
2019-04-10T00:31:40.230Z,99884.08
2019-04-10T00:34:13.527Z,99878.64
2019-04-10T00:36:45.623Z,99875.44
2019-04-10T00:39:18.069Z,99870.91
2019-04-10T00:41:49.635Z,99871.42
2019-04-10T00:44:21.680Z,99874.28
2019-04-10T00:46:53.433Z,99874.16
2019-04-10T00:49:26.014Z,99870.66
2019-04-10T00:51:57.546Z,99869.03
2019-04-10T00:54:29.726Z,99867.05
2019-04-10T00:57:01.176Z,99876.25
2019-04-10T00:59:34.465Z,99873.13
2019-04-10T01:02:05.739Z,99869.97
2019-04-10T01:04:38.193Z,99870.15
2019-04-10T01:07:10.686Z,99870.66
2019-04-10T01:09:42.539Z,99868.16
2019-04-10T01:12:14.233Z,99871.37
2019-04-10T01:14:46.284Z,99876.27
2019-04-10T01:17:17.878Z,99880.84
2019-04-10T01:19:50.263Z,99884.74
2019-04-10T01:22:21.467Z,99886.98
2019-04-10T01:24:54.342Z,99887.82
2019-04-10T01:27:26.236Z,99886.48
2019-04-10T01:29:58.642Z,99888.81
2019-04-10T01:32:30.445Z,99885.65
2019-04-10T01:35:02.511Z,99878.44
2019-04-10T01:37:46.897Z,99886.31
2019-04-10T01:40:09.012Z,99881.81
2019-04-10T01:42:40.837Z,99880.99
2019-04-10T01:45:13.301Z,99883.03
2019-04-10T01:47:44.308Z,99882.07
2019-04-10T01:50:16.023Z,99879.87
2019-04-10T01:52:47.800Z,99880.73
2019-04-10T01:55:26.595Z,99879.73
2019-04-10T01:57:54.692Z,99879.91
2019-04-10T02:00:28.093Z,99876.59
2019-04-10T02:02:59.757Z,99877.25
2019-04-10T02:05:32.567Z,99874.44
2019-04-10T02:08:10.023Z,99880.30
2019-04-10T02:10:38.407Z,99874.91
2019-04-10T02:13:09.973Z,99874.91
2019-04-10T02:15:41.945Z,99876.59
2019-04-10T02:18:13.549Z,99881.64
2019-04-10T02:20:45.637Z,99885.66
2019-04-10T02:23:19.129Z,99891.67
2019-04-10T02:25:50.623Z,99883.98
2019-04-10T02:28:22.773Z,99877.42
2019-04-10T02:30:56.520Z,99875.94
2019-04-10T02:33:29.354Z,99876.59
2019-04-10T02:36:01.588Z,99878.23
2019-04-10T02:38:49.276Z,99882.94
2019-04-10T02:41:08.168Z,99878.44
2019-04-10T02:43:39.918Z,99878.92
2019-04-10T02:46:13.220Z,99885.45
2019-04-10T02:48:45.344Z,99882.81
2019-04-10T02:51:17.641Z,99886.69
2019-04-10T02:53:50.178Z,99887.17
2019-04-10T02:56:23.844Z,99889.16
2019-04-10T02:58:56.708Z,99894.86
2019-04-10T03:01:29.624Z,99894.00
2019-04-10T03:04:01.521Z,99888.98
2019-04-10T03:06:33.643Z,99885.45
2019-04-10T03:09:24.154Z,99892.66
2019-04-10T03:11:41.991Z,99895.69
2019-04-10T03:14:14.784Z,99894.34
2019-04-10T03:16:46.038Z,99894.34
2019-04-10T03:19:19.121Z,99889.28
2019-04-10T03:21:51.374Z,99889.73
2019-04-10T03:24:23.325Z,99892.01
2019-04-10T03:26:54.939Z,99891.20
2019-04-10T03:29:27.427Z,99895.77
2019-04-10T03:32:02.070Z,99754.17
2019-04-10T03:34:38.857Z,99898.00
2019-04-10T03:37:08.259Z,99897.16
2019-04-10T03:39:40.571Z,99896.16
2019-04-10T03:42:12.696Z,99901.63
2019-04-10T03:44:45.206Z,99905.14
2019-04-10T03:47:17.497Z,99905.09
2019-04-10T03:49:49.851Z,99907.27
2019-04-10T03:52:21.501Z,99899.22
2019-04-10T03:54:54.512Z,99901.67
2019-04-10T03:57:26.802Z,99911.92
2019-04-10T03:59:58.659Z,99906.30
2019-04-10T04:02:31.578Z,99900.91
2019-04-10T04:05:04.390Z,99890.47
2019-04-10T04:07:36.795Z,99895.81
2019-04-10T04:10:09.304Z,99890.02
2019-04-10T04:12:41.060Z,99889.42
2019-04-10T04:15:13.596Z,99887.28
2019-04-10T04:17:44.746Z,99893.98
2019-04-10T04:20:16.937Z,99891.16
2019-04-10T04:22:49.490Z,99892.77
2019-04-10T04:25:21.892Z,99888.89
2019-04-10T04:27:53.922Z,99894.69
2019-04-10T04:30:25.820Z,99904.22
2019-04-10T04:32:58.040Z,99897.80
2019-04-10T04:35:30.047Z,99903.50
2019-04-10T04:38:02.582Z,99912.75
2019-04-10T04:40:35.672Z,99904.39
2019-04-10T04:43:07.892Z,99908.07
2019-04-10T04:45:40.093Z,99909.87
2019-04-10T04:48:11.835Z,99909.87
2019-04-10T04:50:43.975Z,99913.23
2019-04-10T04:53:16.238Z,99921.27
2019-04-10T04:55:47.838Z,99919.88
2019-04-10T04:58:20.286Z,99913.51
2019-04-10T05:00:52.400Z,99917.16
2019-04-10T05:03:25.576Z,99914.20
2019-04-10T05:05:58.221Z,99914.20
2019-04-10T05:08:30.280Z,99914.88
2019-04-10T05:11:02.189Z,99915.17
2019-04-10T05:13:34.787Z,99913.02
2019-04-10T05:16:07.949Z,99918.16
2019-04-10T05:18:39.868Z,99906.42
2019-04-10T05:21:12.719Z,99921.78
2019-04-10T05:23:44.598Z,99915.58
2019-04-10T05:26:16.612Z,99908.57
2019-04-10T05:28:48.634Z,99908.87
2019-04-10T05:31:21.474Z,99907.26
2019-04-10T05:33:53.347Z,99909.28
2019-04-10T05:36:25.665Z,99913.43
2019-04-10T05:38:56.477Z,99913.31
2019-04-10T05:41:29.372Z,99908.89
2019-04-10T05:44:01.202Z,99910.05
2019-04-10T05:46:32.988Z,99917.14
2019-04-10T05:49:04.553Z,99912.44
2019-04-10T05:51:37.471Z,99910.68
2019-04-10T05:54:08.947Z,99903.71
2019-04-10T05:56:41.149Z,99910.67
2019-04-10T05:59:13.594Z,99904.38
2019-04-10T06:01:46.272Z,99906.19
2019-04-10T06:04:18.969Z,99906.34
2019-04-10T06:06:50.711Z,99905.12
2019-04-10T06:09:22.754Z,99904.84
2019-04-10T06:11:55.296Z,99917.67
2019-04-10T06:14:28.185Z,99916.57
2019-04-10T06:17:03.659Z,99909.27
2019-04-10T06:19:34.291Z,99907.14
2019-04-10T06:22:06.207Z,99910.84
2019-04-10T06:24:38.468Z,99901.97
2019-04-10T06:27:10.396Z,99910.13
2019-04-10T06:29:44.566Z,99911.83
2019-04-10T06:32:15.615Z,99902.57
2019-04-10T06:34:48.215Z,99892.84
2019-04-10T06:37:19.878Z,99892.88
2019-04-10T06:40:03.668Z,99898.72
2019-04-10T06:42:26.575Z,99901.20
2019-04-10T06:44:59.032Z,99904.38
2019-04-10T06:47:30.633Z,99911.28
2019-04-10T06:50:02.633Z,99904.19
2019-04-10T06:52:34.583Z,99898.66
2019-04-10T06:55:07.288Z,99914.12
2019-04-10T06:57:46.808Z,99910.39
2019-04-10T07:00:16.612Z,99913.48
2019-04-10T07:02:48.438Z,99913.66
2019-04-10T07:05:19.885Z,99916.33
2019-04-10T07:07:56.658Z,99914.69
2019-04-10T07:10:30.763Z,99925.79
2019-04-10T07:12:59.568Z,99916.34
2019-04-10T07:15:31.554Z,99917.24
2019-04-10T07:18:03.104Z,99920.14
2019-04-10T07:20:35.917Z,99922.23
2019-04-10T07:23:08.073Z,99918.98
2019-04-10T07:25:42.461Z,99917.27
2019-04-10T07:28:13.730Z,99915.89
2019-04-10T07:30:45.661Z,99915.02
2019-04-10T07:33:19.430Z,99911.53
2019-04-10T07:35:54.599Z,99901.51
2019-04-10T07:38:24.762Z,99900.77
2019-04-10T07:40:56.892Z,99898.03
2019-04-10T07:43:29.497Z,99893.52
2019-04-10T07:46:02.381Z,99897.59
2019-04-10T07:48:34.033Z,99897.32
2019-04-10T07:51:06.998Z,99892.56
2019-04-10T07:53:39.582Z,99892.32
2019-04-10T07:56:17.346Z,99877.12
2019-04-10T07:58:46.005Z,99882.16
2019-04-10T08:01:18.261Z,99884.09
2019-04-10T08:03:52.214Z,99878.18
2019-04-10T08:06:23.498Z,99872.70
2019-04-10T08:08:56.286Z,99865.06
2019-04-10T08:11:29.530Z,99865.06
2019-04-10T08:14:01.803Z,99875.70
2019-04-10T08:16:33.348Z,99870.70
2019-04-10T08:19:06.278Z,99860.23
2019-04-10T08:21:38.101Z,99874.88
2019-04-10T08:24:09.897Z,99880.09
2019-04-10T08:26:42.977Z,99872.81
2019-04-10T08:29:14.650Z,99878.44
2019-04-10T08:31:46.295Z,99868.27
2019-04-10T08:34:19.401Z,99868.52
2019-04-10T08:36:53.847Z,99862.22
2019-04-10T08:39:33.983Z,99867.12
2019-04-10T08:42:00.010Z,99862.13
2019-04-10T08:44:32.260Z,99859.78
2019-04-10T08:47:03.702Z,99860.52
2019-04-10T08:49:35.482Z,99846.83
2019-04-10T08:52:08.236Z,99869.67
2019-04-10T08:54:40.502Z,99854.66
2019-04-10T08:57:12.208Z,99864.11
2019-04-10T08:59:45.320Z,99852.06
2019-04-10T09:02:18.016Z,99870.30
2019-04-10T09:04:49.959Z,99870.30
2019-04-10T09:07:22.218Z,99866.20
2019-04-10T09:09:54.256Z,99858.31
2019-04-10T09:12:26.126Z,99856.91
2019-04-10T09:14:59.239Z,99862.60
2019-04-10T09:17:33.341Z,99872.48
2019-04-10T09:20:08.809Z,99859.80
2019-04-10T09:22:57.934Z,99868.23
2019-04-10T09:25:13.839Z,99852.79
2019-04-10T09:27:46.314Z,99868.53
2019-04-10T09:30:18.445Z,99827.22
2019-04-10T09:32:50.628Z,99851.00
2019-04-10T09:35:22.537Z,99844.03
2019-04-10T09:37:54.597Z,99850.12
2019-04-10T09:40:27.966Z,99851.75
2019-04-10T09:42:59.777Z,99849.04
2019-04-10T09:45:31.452Z,99841.07
2019-04-10T09:48:04.274Z,99852.03
2019-04-10T09:50:36.816Z,99838.08
2019-04-10T09:53:08.791Z,99838.11
2019-04-10T09:55:40.488Z,99836.22
2019-04-10T09:58:13.301Z,99826.45
2019-04-10T10:00:45.848Z,99830.31
2019-04-10T10:03:17.955Z,99822.69
2019-04-10T10:05:51.306Z,99821.08
2019-04-10T10:08:22.931Z,99815.32
2019-04-10T10:10:55.566Z,99830.08
2019-04-10T10:13:27.748Z,99833.13
2019-04-10T10:16:00.751Z,99824.98
2019-04-10T10:18:33.167Z,99833.41
2019-04-10T10:21:04.197Z,99825.53
2019-04-10T10:23:36.120Z,99829.13
2019-04-10T10:26:07.991Z,99827.52
2019-04-10T10:28:39.714Z,99825.33
2019-04-10T10:31:11.649Z,99825.87
2019-04-10T10:33:43.312Z,99823.95
2019-04-10T10:36:15.856Z,99824.51
2019-04-10T10:38:47.542Z,99832.47
2019-04-10T10:41:20.227Z,99829.98
2019-04-10T10:43:52.975Z,99829.44
2019-04-10T10:46:25.173Z,99832.42
2019-04-10T10:48:57.971Z,99833.22
2019-04-10T10:51:30.830Z,99823.91
2019-04-10T10:54:03.103Z,99824.67
2019-04-10T10:56:36.329Z,99826.62
2019-04-10T10:59:07.889Z,99824.34
2019-04-10T11:01:40.021Z,99819.86
2019-04-10T11:04:11.507Z,99831.56
2019-04-10T11:06:55.337Z,99823.58
2019-04-10T11:09:18.191Z,99823.77
2019-04-10T11:11:49.816Z,99821.93
2019-04-10T11:14:21.619Z,99828.38
2019-04-10T11:16:56.119Z,99817.69
2019-04-10T11:19:29.117Z,99828.45
2019-04-10T11:22:01.016Z,99817.28
2019-04-10T11:24:33.248Z,99826.58
2019-04-10T11:27:06.617Z,99825.89
2019-04-10T11:29:39.017Z,99819.11
2019-04-10T11:32:11.663Z,99820.18
2019-04-10T11:34:43.252Z,99820.64
2019-04-10T11:37:24.151Z,99821.52
2019-04-10T11:39:50.922Z,99818.17
2019-04-10T11:42:23.527Z,99811.79
2019-04-10T11:44:55.520Z,99809.04
2019-04-10T11:47:26.805Z,99801.59
2019-04-10T11:50:00.906Z,99805.90
2019-04-10T11:52:39.653Z,99804.12
2019-04-10T11:55:13.703Z,99805.73
2019-04-10T11:57:41.978Z,99800.12
2019-04-10T12:00:19.616Z,99794.27
2019-04-10T12:02:52.760Z,99793.73
2019-04-10T12:05:26.859Z,99788.23
2019-04-10T12:08:22.093Z,99783.63
2019-04-10T12:13:05.980Z,99780.89
2019-04-10T12:15:39.212Z,99782.53
2019-04-10T12:18:11.447Z,99767.63
2019-04-10T12:20:43.160Z,99769.24
2019-04-10T12:23:16.762Z,99763.93
2019-04-10T12:25:49.387Z,99772.22
2019-04-10T12:28:22.087Z,99764.23
2019-04-10T12:30:53.663Z,99763.78
2019-04-10T12:33:25.526Z,99762.55
2019-04-10T12:35:58.191Z,99767.41
2019-04-10T12:38:29.992Z,99760.16
2019-04-10T12:41:01.502Z,99761.85
2019-04-10T12:43:33.466Z,99762.70
2019-04-10T12:46:05.544Z,99762.94
2019-04-10T12:48:38.801Z,99762.23
2019-04-10T12:51:11.864Z,99766.38
2019-04-10T12:53:43.635Z,99751.68
2019-04-10T12:56:15.773Z,99756.64
2019-04-10T12:58:47.410Z,99755.89
2019-04-10T13:01:19.060Z,99760.59
2019-04-10T13:03:51.526Z,99761.15
2019-04-10T13:06:24.177Z,99749.71
2019-04-10T13:09:05.652Z,99758.83
2019-04-10T13:11:30.169Z,99753.58
2019-04-10T13:14:02.216Z,99752.40
2019-04-10T13:16:34.258Z,99750.22
2019-04-10T13:19:06.964Z,99737.81
2019-04-10T13:21:38.955Z,99743.45
2019-04-10T13:24:11.112Z,99748.44
2019-04-10T13:26:42.888Z,99737.77
2019-04-10T13:29:14.762Z,99740.23
2019-04-10T13:31:46.745Z,99739.89
2019-04-10T13:34:19.655Z,99742.42
2019-04-10T13:36:51.651Z,99736.66
2019-04-10T13:39:24.446Z,99736.50
2019-04-10T13:41:56.731Z,99732.09
2019-04-10T13:44:30.722Z,99726.08
2019-04-10T13:47:02.691Z,99730.70
2019-04-10T13:49:34.531Z,99731.16
2019-04-10T13:52:05.791Z,99732.01
2019-04-10T13:54:37.353Z,99733.59
2019-04-10T13:57:09.824Z,99725.01
2019-04-10T13:59:41.774Z,99726.02
2019-04-10T14:02:17.321Z,99731.47
2019-04-10T14:04:49.436Z,99730.78
2019-04-10T14:07:22.119Z,99731.83
2019-04-10T14:09:54.480Z,99728.70
2019-04-10T14:12:27.082Z,99732.91
2019-04-10T14:15:01.544Z,99736.24
2019-04-10T14:17:33.719Z,99734.39
2019-04-10T14:20:07.583Z,99732.52
2019-04-10T14:22:41.964Z,99763.53
2019-04-10T14:25:15.631Z,99746.13
2019-04-10T14:27:47.362Z,99818.20
2019-04-10T14:30:29.726Z,99788.37
2019-04-10T14:33:01.422Z,99770.68
2019-04-10T14:35:33.620Z,99768.10
2019-04-10T14:38:06.557Z,99761.15
2019-04-10T14:40:39.897Z,99760.41
2019-04-10T14:43:12.441Z,99759.78
2019-04-10T14:45:43.774Z,99760.41
2019-04-10T14:48:16.107Z,99750.46
2019-04-10T14:50:47.904Z,99741.07
2019-04-10T14:53:20.149Z,99746.75
2019-04-10T14:55:51.717Z,99752.14
2019-04-10T14:58:28.181Z,99746.10
2019-04-10T15:00:57.936Z,99750.56
2019-04-10T15:03:30.678Z,99749.63
2019-04-10T15:06:02.628Z,99761.38
2019-04-10T15:08:35.603Z,99757.54
2019-04-10T15:11:08.683Z,99759.86
2019-04-10T15:13:40.898Z,99758.73
2019-04-10T15:16:12.886Z,99767.36
2019-04-10T15:18:45.836Z,99777.53
2019-04-10T15:21:18.594Z,99780.09
2019-04-10T15:23:51.071Z,99794.92
2019-04-10T15:26:23.928Z,99787.81
2019-04-10T15:28:56.317Z,99780.13
2019-04-10T15:31:29.075Z,99779.15
2019-04-10T15:34:01.602Z,99781.17
2019-04-10T15:36:33.944Z,99779.56
2019-04-10T15:39:08.695Z,99788.91
2019-04-10T15:41:41.308Z,99809.98
2019-04-10T15:44:14.084Z,99819.70
2019-04-10T15:46:46.470Z,99837.41
2019-04-10T15:49:19.406Z,99854.34
2019-04-10T15:51:51.052Z,99858.37
2019-04-10T15:54:23.652Z,99867.03
2019-04-10T15:56:54.681Z,99885.45
2019-04-10T15:59:26.792Z,99900.50
2019-04-10T16:01:59.370Z,99899.22
2019-04-10T16:04:31.668Z,99916.43
2019-04-10T16:07:04.143Z,99920.95
2019-04-10T16:09:46.409Z,99916.87
2019-04-10T16:12:16.912Z,99922.59
2019-04-10T16:14:50.669Z,99928.84
2019-04-10T16:17:44.382Z,99929.44
2019-04-10T16:20:21.744Z,99943.83
2019-04-10T16:22:55.001Z,99940.24
2019-04-10T16:25:30.156Z,99944.98
2019-04-10T16:28:02.575Z,99947.03
2019-04-10T16:30:34.924Z,99940.19
2019-04-10T16:33:07.148Z,99953.30
2019-04-10T16:35:40.091Z,99958.87
2019-04-10T16:38:12.129Z,99956.14
2019-04-10T16:40:44.027Z,99953.66
2019-04-10T16:43:16.046Z,99953.34
2019-04-10T16:45:48.986Z,99950.89
2019-04-10T16:48:21.005Z,99951.31
2019-04-10T16:50:53.970Z,99949.14
2019-04-10T16:53:25.782Z,99937.61
2019-04-10T16:55:59.042Z,99944.11
2019-04-10T16:58:32.020Z,99939.52
2019-04-10T17:01:04.414Z,99939.30
2019-04-10T17:03:35.954Z,99945.56
2019-04-10T17:06:08.245Z,99948.31
2019-04-10T17:08:40.465Z,99942.23
2019-04-10T17:11:12.618Z,99953.19
2019-04-10T17:13:44.156Z,99955.02
2019-04-10T17:16:17.647Z,99957.57
2019-04-10T17:18:49.626Z,99958.61
2019-04-10T17:21:21.519Z,99956.88
2019-04-10T17:23:53.276Z,99959.11
2019-04-10T17:26:26.599Z,99950.89
2019-04-10T17:28:58.847Z,99941.41
2019-04-10T17:31:30.858Z,99923.92
2019-04-10T17:34:02.973Z,99917.72
2019-04-10T17:36:34.855Z,99907.92
2019-04-10T17:39:11.234Z,99909.72
2019-04-10T17:41:43.890Z,99904.99
2019-04-10T17:44:17.977Z,99907.23
2019-04-10T17:46:51.265Z,99907.61
2019-04-10T17:49:23.483Z,99904.58
2019-04-10T17:51:54.958Z,99913.34
2019-04-10T17:54:28.527Z,99917.33
2019-04-10T17:57:00.985Z,99920.95
2019-04-10T17:59:32.667Z,99924.45
2019-04-10T18:02:07.401Z,99926.80
2019-04-10T18:04:40.081Z,99925.42
2019-04-10T18:07:12.157Z,99922.54
2019-04-10T18:09:43.814Z,99925.07
2019-04-10T18:12:16.292Z,99924.89
2019-04-10T18:14:49.210Z,99890.90
2019-04-10T18:17:21.221Z,99929.12
2019-04-10T18:19:52.725Z,99931.31
2019-04-10T18:22:24.826Z,99923.84
2019-04-10T18:24:56.507Z,99922.84
2019-04-10T18:27:28.276Z,99921.09
2019-04-10T18:29:59.922Z,99918.41
2019-04-10T18:32:31.884Z,99910.41
2019-04-10T18:35:04.618Z,99909.50
2019-04-10T18:37:37.066Z,99907.06
2019-04-10T18:40:08.363Z,99902.59
2019-04-10T18:42:40.145Z,99909.16
2019-04-10T18:45:13.327Z,99895.02
2019-04-10T18:47:46.097Z,99894.77
2019-04-10T18:50:18.315Z,99891.17
2019-04-10T18:52:49.976Z,99890.53
2019-04-10T18:55:22.582Z,99891.20
2019-04-10T18:57:54.919Z,99895.62
2019-04-10T19:00:43.759Z,99891.72
2019-04-10T19:03:17.849Z,99889.66
2019-04-10T19:06:08.304Z,99895.49
2019-04-10T19:08:39.852Z,99887.64
2019-04-10T19:11:21.117Z,99884.63
2019-04-10T19:13:47.248Z,99895.75
2019-04-10T19:16:21.416Z,99893.95
2019-04-10T19:18:53.778Z,99893.33
2019-04-10T19:21:27.245Z,99897.78
2019-04-10T19:23:59.159Z,99902.56
2019-04-10T19:26:31.495Z,99909.84
2019-04-10T19:29:03.392Z,99928.84
2019-04-10T19:31:38.533Z,99940.47
2019-04-10T19:34:10.225Z,99943.50
2019-04-10T19:36:43.883Z,99947.35
2019-04-10T19:39:16.091Z,99954.55
2019-04-10T19:41:49.107Z,99954.75
2019-04-10T19:44:21.199Z,99952.38
2019-04-10T19:46:53.659Z,99962.03
2019-04-10T19:49:25.260Z,99958.19
2019-04-10T19:51:58.126Z,99959.74
2019-04-10T19:54:30.221Z,99956.31
2019-04-10T19:57:04.539Z,99962.76
2019-04-10T19:59:36.327Z,99965.53
2019-04-10T20:02:08.844Z,99970.94
2019-04-10T20:04:40.954Z,99970.13
2019-04-10T20:07:13.176Z,99966.81
2019-04-10T20:09:46.241Z,99965.97
2019-04-10T20:12:18.202Z,99969.69
2019-04-10T20:14:50.642Z,99974.67
2019-04-10T20:17:22.529Z,99965.02
2019-04-10T20:19:56.718Z,99972.88
2019-04-10T20:22:29.315Z,99975.64
2019-04-10T20:25:02.154Z,99980.59
2019-04-10T20:27:34.167Z,99979.50
2019-04-10T20:30:09.907Z,99974.12
2019-04-10T20:32:42.020Z,99975.23
2019-04-10T20:35:14.058Z,99975.21
2019-04-10T20:37:47.330Z,99971.55
2019-04-10T20:40:20.758Z,99980.70
2019-04-10T20:42:52.609Z,99992.80
2019-04-10T20:45:25.313Z,99993.62
2019-04-10T20:47:58.197Z,99992.90
2019-04-10T20:50:30.113Z,99993.11
2019-04-10T20:53:01.988Z,99988.66
2019-04-10T20:55:35.558Z,99987.76
2019-04-10T20:58:07.415Z,99987.44
2019-04-10T21:00:41.248Z,99983.52
2019-04-10T21:03:13.814Z,99975.69
2019-04-10T21:05:46.690Z,99978.93
2019-04-10T21:08:18.547Z,99986.43
2019-04-10T21:10:51.370Z,99992.77
2019-04-10T21:13:23.534Z,99992.36
2019-04-10T21:15:55.634Z,100001.02
2019-04-10T21:26:28.307Z,100002.95
2019-04-10T21:29:00.884Z,99999.66
2019-04-10T21:31:50.677Z,99990.62
2019-04-10T21:34:37.012Z,99985.95
2019-04-10T21:37:09.959Z,99991.97
2019-04-10T21:39:42.235Z,99992.91
2019-04-10T21:42:21.210Z,100001.14
2019-04-10T21:44:49.147Z,99996.23
2019-04-10T21:47:21.788Z,99996.36
2019-04-10T21:49:53.419Z,100000.73
2019-04-10T21:52:25.603Z,100010.52
2019-04-10T21:55:00.493Z,100016.53
2019-04-10T21:57:32.761Z,100014.25
2019-04-10T22:00:10.069Z,100011.75
2019-04-10T22:02:45.017Z,100014.04
2019-04-10T22:05:17.111Z,100021.94
2019-04-10T22:08:09.460Z,100013.75
2019-04-10T22:10:46.145Z,100019.64
2019-04-10T22:13:19.713Z,100012.06
2019-04-10T22:15:51.986Z,100004.91
2019-04-10T22:18:25.232Z,100010.70
2019-04-10T22:20:58.567Z,100019.11
2019-04-10T22:23:30.472Z,100020.88
2019-04-10T22:26:02.286Z,100031.58
2019-04-10T22:28:34.124Z,100026.38
2019-04-10T22:31:06.105Z,100019.71
2019-04-10T22:33:38.515Z,100018.03
2019-04-10T22:36:10.798Z,100031.93
2019-04-10T22:38:43.803Z,100027.88
2019-04-10T22:41:23.613Z,100042.52
2019-04-10T22:43:49.636Z,100036.10
2019-04-10T22:46:21.561Z,100036.63
2019-04-10T22:48:53.949Z,100028.53
2019-04-10T22:51:26.917Z,100027.59
2019-04-10T22:53:58.831Z,100034.33
2019-04-10T22:56:31.558Z,100042.95
2019-04-10T22:59:03.961Z,100047.50
2019-04-10T23:01:35.819Z,100039.94
2019-04-10T23:04:08.210Z,100046.55
2019-04-10T23:06:39.671Z,100046.36
2019-04-10T23:09:12.343Z,100047.49
2019-04-10T23:11:46.463Z,100047.69
2019-04-10T23:14:18.524Z,100044.87
2019-04-10T23:16:50.512Z,100038.75
2019-04-10T23:19:22.676Z,100040.30
2019-04-10T23:21:54.620Z,100040.37
2019-04-10T23:24:27.741Z,100030.51
2019-04-10T23:27:01.720Z,100047.73
2019-04-10T23:29:33.839Z,100046.19
2019-04-10T23:32:05.954Z,100038.09
2019-04-10T23:34:38.918Z,100039.16
2019-04-10T23:37:10.921Z,100043.69
2019-04-10T23:39:43.836Z,100050.44
2019-04-10T23:42:15.930Z,100049.74
2019-04-10T23:44:47.781Z,100056.98
2019-04-10T23:47:20.095Z,100056.28
2019-04-10T23:49:52.066Z,100054.08
2019-04-10T23:52:23.787Z,100055.23
2019-04-10T23:54:55.855Z,100056.91
2019-04-10T23:57:27.785Z,100056.91
